createdAt,value
2022-09-01T00:05:09.227Z,2.7
2022-09-01T00:11:00.856Z,2.7
2022-09-01T00:16:57.200Z,3
2022-09-01T00:22:49.432Z,2.8
2022-09-01T00:29:50.563Z,2.5
2022-09-01T00:35:44.127Z,2.5
2022-09-01T00:41:34.918Z,2.5
2022-09-01T00:47:26.755Z,2.6
2022-09-01T00:53:19.282Z,2.8
2022-09-01T00:59:10.486Z,2.7
2022-09-01T01:05:01.745Z,3.3
2022-09-01T01:10:53.109Z,2.9
2022-09-01T01:16:44.439Z,2.9
2022-09-01T01:22:36.331Z,2.9
2022-09-01T01:28:28.499Z,3.2
2022-09-01T01:34:19.939Z,3
2022-09-01T01:40:10.790Z,3.3
2022-09-01T01:46:03.217Z,3.3
2022-09-01T01:51:53.420Z,3.3
2022-09-01T01:57:45.194Z,3.3
2022-09-01T02:03:36.710Z,3.6
2022-09-01T02:09:27.593Z,3.8
2022-09-01T02:15:19.715Z,3.8
2022-09-01T02:21:12.946Z,3.7
2022-09-01T02:27:06.084Z,3.9
2022-09-01T02:32:56.237Z,4
2022-09-01T02:39:00.240Z,4
2022-09-01T02:44:52.408Z,4
2022-09-01T02:50:44.284Z,4
2022-09-01T02:56:35.244Z,4.2
2022-09-01T03:02:28.024Z,4.1
2022-09-01T03:08:20.728Z,4
2022-09-01T03:14:13.342Z,4
2022-09-01T03:20:05.480Z,4
2022-09-01T03:25:56.509Z,4.3
2022-09-01T03:31:48.369Z,4.2
2022-09-01T03:37:40.655Z,4.1
2022-09-01T03:43:49.990Z,4
2022-09-01T03:49:40.195Z,4.4
2022-09-01T03:55:30.808Z,4.4
2022-09-01T04:01:22.857Z,4.4
2022-09-01T04:07:22.529Z,4.6
2022-09-01T04:13:16.915Z,4.5
2022-09-01T04:19:07.074Z,4.3
2022-09-01T04:24:58.850Z,4.3
2022-09-01T04:30:57.993Z,4.1
2022-09-01T04:36:51.616Z,4.7
2022-09-01T04:42:45.459Z,4.4
2022-09-01T04:48:40.006Z,4
2022-09-01T04:54:30.534Z,4.1
2022-09-01T05:00:22.862Z,4.3
2022-09-01T05:06:14.072Z,4.7
2022-09-01T05:12:05.485Z,4.9
2022-09-01T05:17:57.308Z,4.9
2022-09-01T05:23:50.352Z,4.3
2022-09-01T05:29:41.952Z,4.7
2022-09-01T05:35:39.518Z,4.7
2022-09-01T05:41:29.833Z,4.4
2022-09-01T05:47:30.122Z,4.1
2022-09-01T05:53:23.759Z,4
2022-09-01T05:59:34.084Z,4.1
2022-09-01T06:05:24.096Z,4
2022-09-01T06:11:18.410Z,4.8
2022-09-01T06:17:09.691Z,4.8
2022-09-01T06:23:00.783Z,4.7
2022-09-01T06:29:22.599Z,4.3
2022-09-01T06:35:44.752Z,4.3
2022-09-01T06:41:42.324Z,4.1
2022-09-01T06:47:35.546Z,4.3
2022-09-01T06:53:44.203Z,3.9
2022-09-01T07:00:02.677Z,3.8
2022-09-01T07:42:58.433Z,3.5
2022-09-01T07:51:35.460Z,2.4
2022-09-01T07:57:34.480Z,2.2
2022-09-01T08:03:38.436Z,2
2022-09-01T08:09:50.495Z,2.1
2022-09-01T08:16:27.872Z,2.3
2022-09-01T08:22:38.202Z,2.1
2022-09-01T08:29:59.099Z,2.3
2022-09-01T08:35:52.273Z,2.3
2022-09-01T08:42:12.441Z,2.1
2022-09-01T08:49:29.492Z,2.1
2022-09-01T08:55:47.719Z,2.2
2022-09-01T09:01:54.714Z,1.9
2022-09-01T09:14:56.229Z,2
2022-09-01T09:21:02.450Z,2.5
2022-09-01T09:27:32.849Z,2.6
2022-09-01T09:34:04.171Z,2.2
2022-09-01T09:40:10.081Z,2.4
2022-09-01T09:46:49.006Z,2.5
2022-09-01T10:20:32.315Z,2.5
2022-09-01T10:26:32.478Z,2.4
2022-09-01T10:33:00.528Z,2.6
2022-09-01T10:39:14.033Z,2.7
2022-09-01T10:45:04.942Z,2.6
2022-09-01T10:50:56.437Z,2.6
2022-09-01T10:57:03.844Z,2.6
2022-09-01T11:03:34.210Z,2.7
2022-09-01T11:09:49.377Z,2.9
2022-09-01T11:22:21.807Z,3.2
2022-09-01T11:28:39.789Z,3.4
2022-09-01T11:34:47.178Z,3.3
2022-09-01T11:40:51.225Z,3.1
2022-09-01T11:52:51.312Z,3.3
2022-09-01T11:58:53.117Z,3.2
2022-09-01T12:05:08.167Z,2.9
2022-09-01T12:17:29.951Z,3.2
2022-09-01T12:23:34.498Z,3.2
2022-09-01T12:36:38.311Z,3.3
2022-09-01T12:42:28.268Z,3
2022-09-01T12:48:36.514Z,3
2022-09-01T12:54:27.869Z,3.4
2022-09-01T13:00:36.138Z,3.5
2022-09-01T13:12:52.284Z,3.5
2022-09-01T13:26:07.132Z,3.3
2022-09-01T13:33:23.193Z,3.1
2022-09-01T13:39:11.617Z,3.4
2022-09-01T13:45:06.152Z,3.1
2022-09-01T13:51:28.430Z,2.9
2022-09-01T13:57:18.574Z,3
2022-09-01T14:03:22.793Z,2.9
2022-09-01T14:09:19.981Z,3.1
2022-09-01T14:15:30.723Z,2.9
2022-09-01T14:21:24.274Z,2.9
2022-09-01T14:28:01.915Z,2.9
2022-09-01T14:33:53.240Z,2.5
2022-09-01T14:39:57.631Z,2.9
2022-09-01T14:45:48.501Z,2.8
2022-09-01T14:52:24.329Z,2.7
2022-09-01T14:58:19.734Z,2.5
2022-09-01T15:04:11.504Z,2.4
2022-09-01T15:10:03.054Z,2.5
2022-09-01T15:15:56.687Z,2.5
2022-09-01T15:21:50.762Z,2.6
2022-09-01T15:27:48.683Z,2.6
2022-09-01T15:33:43.314Z,2.6
2022-09-01T15:39:44.333Z,2.5
2022-09-01T15:45:34.188Z,2.2
2022-09-01T15:51:25.180Z,2.3
2022-09-01T15:57:18.050Z,2.1
2022-09-01T16:03:07.461Z,2.1
2022-09-01T16:08:58.715Z,2.4
2022-09-01T16:14:49.093Z,2.3
2022-09-01T16:20:39.925Z,2.2
2022-09-01T16:26:30.582Z,2.3
2022-09-01T16:32:21.652Z,2.2
2022-09-01T16:38:14.647Z,2.6
2022-09-01T16:44:05.876Z,2.2
2022-09-01T16:49:57.044Z,2.2
2022-09-01T16:55:48.184Z,2
2022-09-01T17:01:40.545Z,2
2022-09-01T17:07:36.415Z,2.2
2022-09-01T17:13:31.499Z,2.2
2022-09-01T17:19:22.011Z,2.6
2022-09-01T17:25:17.505Z,2.1
2022-09-01T17:31:11.378Z,2.2
2022-09-01T17:37:02.054Z,2.3
2022-09-01T17:42:52.744Z,2.1
2022-09-01T17:48:44.201Z,2.5
2022-09-01T17:54:34.939Z,2.8
2022-09-01T18:00:26.373Z,2.6
2022-09-01T18:06:17.496Z,2.4
2022-09-01T18:12:09.366Z,2.7
2022-09-01T18:18:00.208Z,3.1
2022-09-01T18:23:51.220Z,3.2
2022-09-01T18:29:46.058Z,3.4
2022-09-01T18:35:37.380Z,2.8
2022-09-01T18:41:28.440Z,3
2022-09-01T18:47:25.911Z,2.7
2022-09-01T18:53:16.399Z,2.8
2022-09-01T18:59:09.769Z,2.8
2022-09-01T19:05:00.255Z,2.9
2022-09-01T19:10:51.393Z,3
2022-09-01T19:16:43.301Z,2.9
2022-09-01T19:22:34.514Z,2.7
2022-09-01T19:29:33.994Z,2.9
2022-09-01T19:35:24.456Z,3.1
2022-09-01T19:41:16.558Z,3.1
2022-09-01T19:47:07.703Z,3
2022-09-01T19:52:58.941Z,3.1
2022-09-01T19:58:49.896Z,2.7
2022-09-01T20:04:38.949Z,3.6
2022-09-01T20:10:29.637Z,3
2022-09-01T20:16:21.530Z,3
2022-09-01T20:22:12.033Z,2.9
2022-09-01T20:28:04.179Z,3
2022-09-01T20:33:55.198Z,3.2
2022-09-01T20:39:45.930Z,2.4
2022-09-01T20:45:37.284Z,2.4
2022-09-01T20:51:34.183Z,2.9
2022-09-01T20:57:23.525Z,2.6
2022-09-01T21:03:18.364Z,2.3
2022-09-01T21:09:11.250Z,2.2
2022-09-01T21:15:06.007Z,2.8
2022-09-01T21:20:56.781Z,2.4
2022-09-01T21:26:47.336Z,2.6
2022-09-01T21:32:39.236Z,2
2022-09-01T21:38:29.172Z,2.8
2022-09-01T21:44:22.999Z,1.9
2022-09-01T21:50:14.117Z,2.2
2022-09-01T21:56:06.963Z,2.5
2022-09-01T22:01:58.559Z,2
2022-09-01T22:07:51.564Z,1.9
2022-09-01T22:13:44.337Z,2.7
2022-09-01T22:19:37.114Z,2
2022-09-01T22:25:28.241Z,2
2022-09-01T22:31:19.932Z,2.2
2022-09-01T22:37:11.099Z,1.7
2022-09-01T22:43:03.943Z,1.8
2022-09-01T22:48:54.332Z,1.7
2022-09-01T22:54:45.811Z,1.6
2022-09-01T23:00:36.785Z,2
2022-09-01T23:06:35.276Z,1.8
2022-09-01T23:12:25.686Z,1.7
2022-09-01T23:18:17.331Z,1.7
2022-09-01T23:24:07.653Z,2
2022-09-01T23:29:59.111Z,1.9
2022-09-01T23:35:50.555Z,1.8
2022-09-01T23:41:41.530Z,1.6
2022-09-01T23:47:32.880Z,1.7
2022-09-01T23:53:24.023Z,1.7
2022-09-01T23:59:15.324Z,1.6
